Warspite, Canada
Current Conditions -  °F | °C
As of 3:00 PM on Tuesday 21 Oct 2014 (Local Time) from CYED Reporting Station
Few Clouds Few Clouds  
Wind Chill: 57°   Ceiling: Unl
Heat Index: 57°   Visibility: 9mi
Dew Point: 37°   Wind: 2mph
Humidity: 48%   Direction: 270°W
Pressure: 29.63"   Gusts: NA
Location:  54.09°N, 112.62°W
Report Text: CYED 212100Z AUTO 27002KT 9SM FEW090 14/03 A2963 RMK SLP043
Loading
Personal Weather Stations






























Interactive Weather Map New forecast layout! Learn more

10-Day Weather Forecast

Advertisements
Track Severe Weather on mobile